Avoca, AR

3:43 PM CDT on October 31, 2014 (GMT -0500)
Avoca | Change Station
CLOSE
Current Station
Personal Weather Station
Location: Rogers, AR
Elevation: 1348 ft
Nearby Weather Stations
Active Advisory: Freeze Warning

Elev 1348 ft 36.41 °N, 94.07 °W | Updated 8 minutes ago

Clear
Clear
51.4 °F
Feels Like 51.4 °F
N
7.3
Wind Variable Wind from NW

Today
High -- | Low -- °F
--% Chance of Precip.
Yesterday
High -- | Low -- °F
Precip. -- in
7:38 AM 6:20 PM
First Quarter, 58% visible
Pressure 30.34 in
Visibility 10.0 miles
Clouds Clear
Dew Point 31 °F
Humidity 45%
Rainfall 0.00 in
Snow Depth Not available.
UV 4 out of 12
Pollen .80 out of 12
Air Quality Not available.
Flu Activity Not available.
METAR KROG 311957Z 36011KT 10SM CLR 09/M03 A3034 RMK AO2 SLP274 T00941028 $

More Conditions Fewer Conditions

Pressure 30.34 in
Visibility 10.0 miles
Clouds Clear
Dew Point 31 °F
Humidity 45%
Rainfall 0.00 in
Snow Depth Not available.
UV 4 out of 12
Pollen .80 out of 12
Air Quality Not available.
Flu Activity Not available.
METAR KROG 311957Z 36011KT 10SM CLR 09/M03 A3034 RMK AO2 SLP274 T00941028 $

More Conditions Fewer Conditions

10-Day Weather Forecast

Almanac

Astronomy

Oct. 31, 2014 Rise Set
Actual Time
Civil Twilight
Nautical Twilight
Astronomical Twilight
Moon
Length of Visible Light
Length of Day
Tomorrow will be .
, % of the Moon is Illuminated

Today's Extremes

State Highs State Lows

Community

WunderPhotos

Upload Photos

1,766,734 photos uploaded!

WunderBlogs® & News

Nearby

Air Quality

  Air Quality AQ Index Pollutant
Not available.

Snow Depth

Station Depth Elevation

Earthquake Activity

City Distance Mag. Time & Date
Minimum magnitude displayed is 2.5.

Coastal Water Temperatures

Place Temperature

Nearby Weather Stations